sensor_id;sensor_type;location;lat;lon;timestamp;P1;durP1;ratioP1;P2;durP2;ratioP2
11865;SDS011;5992;52.744;6.898;2023-02-28T00:01:25;1.67;;;1.57;;
11865;SDS011;5992;52.744;6.898;2023-02-28T00:04:48;1.77;;;1.63;;
11865;SDS011;5992;52.744;6.898;2023-02-28T00:07:49;1.87;;;1.40;;
11865;SDS011;5992;52.744;6.898;2023-02-28T00:11:13;1.63;;;1.53;;
11865;SDS011;5992;52.744;6.898;2023-02-28T00:14:29;2.47;;;1.80;;
11865;SDS011;5992;52.744;6.898;2023-02-28T00:17:54;2.20;;;1.70;;
11865;SDS011;5992;52.744;6.898;2023-02-28T00:20:54;4.33;;;2.63;;
11865;SDS011;5992;52.744;6.898;2023-02-28T00:24:06;3.50;;;1.70;;
11865;SDS011;5992;52.744;6.898;2023-02-28T00:27:21;2.30;;;1.90;;
11865;SDS011;5992;52.744;6.898;2023-02-28T00:30:35;4.23;;;2.07;;
11865;SDS011;5992;52.744;6.898;2023-02-28T00:33:48;1.80;;;1.30;;
11865;SDS011;5992;52.744;6.898;2023-02-28T00:37:01;1.60;;;1.50;;
11865;SDS011;5992;52.744;6.898;2023-02-28T00:40:04;1.77;;;1.67;;
11865;SDS011;5992;52.744;6.898;2023-02-28T00:43:30;2.30;;;1.90;;
11865;SDS011;5992;52.744;6.898;2023-02-28T00:46:44;1.80;;;1.70;;
11865;SDS011;5992;52.744;6.898;2023-02-28T00:50:10;3.83;;;2.00;;
11865;SDS011;5992;52.744;6.898;2023-02-28T00:53:11;1.93;;;1.80;;
11865;SDS011;5992;52.744;6.898;2023-02-28T00:56:23;3.37;;;1.70;;
11865;SDS011;5992;52.744;6.898;2023-02-28T00:59:23;1.65;;;1.55;;
11865;SDS011;5992;52.744;6.898;2023-02-28T01:02:36;2.77;;;1.97;;
11865;SDS011;5992;52.744;6.898;2023-02-28T01:05:48;1.63;;;1.53;;
11865;SDS011;5992;52.744;6.898;2023-02-28T01:09:00;2.10;;;1.55;;
11865;SDS011;5992;52.744;6.898;2023-02-28T01:12:03;1.70;;;1.60;;
11865;SDS011;5992;52.744;6.898;2023-02-28T01:15:16;2.87;;;1.90;;
11865;SDS011;5992;52.744;6.898;2023-02-28T01:18:17;1.70;;;1.60;;
11865;SDS011;5992;52.744;6.898;2023-02-28T01:21:43;1.43;;;1.33;;
11865;SDS011;5992;52.744;6.898;2023-02-28T01:24:43;1.67;;;1.57;;
11865;SDS011;5992;52.744;6.898;2023-02-28T01:27:58;3.20;;;1.87;;
11865;SDS011;5992;52.744;6.898;2023-02-28T01:30:58;3.65;;;1.70;;
11865;SDS011;5992;52.744;6.898;2023-02-28T01:34:23;2.10;;;1.77;;
11865;SDS011;5992;52.744;6.898;2023-02-28T01:37:36;3.05;;;1.85;;
11865;SDS011;5992;52.744;6.898;2023-02-28T01:40:48;2.05;;;1.65;;
11865;SDS011;5992;52.744;6.898;2023-02-28T01:47:45;1.45;;;1.35;;
11865;SDS011;5992;52.744;6.898;2023-02-28T01:51:04;2.00;;;1.80;;
11865;SDS011;5992;52.744;6.898;2023-02-28T01:54:27;2.10;;;1.90;;
11865;SDS011;5992;52.744;6.898;2023-02-28T01:57:50;3.97;;;1.70;;
11865;SDS011;5992;52.744;6.898;2023-02-28T02:01:17;2.00;;;1.70;;
11865;SDS011;5992;52.744;6.898;2023-02-28T02:04:41;1.97;;;1.70;;
11865;SDS011;5992;52.744;6.898;2023-02-28T02:07:55;3.55;;;1.90;;
11865;SDS011;5992;52.744;6.898;2023-02-28T02:11:20;1.63;;;1.50;;
11865;SDS011;5992;52.744;6.898;2023-02-28T02:14:46;1.87;;;1.70;;
11865;SDS011;5992;52.744;6.898;2023-02-28T02:17:57;2.50;;;1.53;;
11865;SDS011;5992;52.744;6.898;2023-02-28T02:25:05;2.17;;;2.00;;
11865;SDS011;5992;52.744;6.898;2023-02-28T02:28:42;4.47;;;1.63;;
11865;SDS011;5992;52.744;6.898;2023-02-28T02:32:02;2.00;;;1.80;;
11865;SDS011;5992;52.744;6.898;2023-02-28T02:35:27;2.23;;;2.03;;
11865;SDS011;5992;52.744;6.898;2023-02-28T02:38:42;2.67;;;2.10;;
11865;SDS011;5992;52.744;6.898;2023-02-28T02:42:11;2.00;;;1.80;;
11865;SDS011;5992;52.744;6.898;2023-02-28T02:45:22;2.63;;;1.60;;
11865;SDS011;5992;52.744;6.898;2023-02-28T02:48:48;2.30;;;2.10;;
11865;SDS011;5992;52.744;6.898;2023-02-28T02:52:02;2.10;;;1.65;;
11865;SDS011;5992;52.744;6.898;2023-02-28T02:55:26;2.30;;;2.10;;
11865;SDS011;5992;52.744;6.898;2023-02-28T02:58:50;2.10;;;1.90;;
11865;SDS011;5992;52.744;6.898;2023-02-28T03:02:14;1.70;;;1.60;;
11865;SDS011;5992;52.744;6.898;2023-02-28T03:05:27;3.13;;;2.03;;
11865;SDS011;5992;52.744;6.898;2023-02-28T03:08:51;3.03;;;1.87;;
11865;SDS011;5992;52.744;6.898;2023-02-28T03:12:04;3.07;;;2.13;;
11865;SDS011;5992;52.744;6.898;2023-02-28T03:15:30;2.63;;;2.00;;
11865;SDS011;5992;52.744;6.898;2023-02-28T03:18:45;1.90;;;1.80;;
11865;SDS011;5992;52.744;6.898;2023-02-28T03:22:11;1.90;;;1.80;;
11865;SDS011;5992;52.744;6.898;2023-02-28T03:25:29;3.10;;;2.75;;
11865;SDS011;5992;52.744;6.898;2023-02-28T03:29:00;1.75;;;1.65;;
11865;SDS011;5992;52.744;6.898;2023-02-28T03:32:12;4.77;;;2.13;;
11865;SDS011;5992;52.744;6.898;2023-02-28T03:35:36;2.30;;;2.10;;
11865;SDS011;5992;52.744;6.898;2023-02-28T03:38:49;3.07;;;2.50;;
11865;SDS011;5992;52.744;6.898;2023-02-28T03:42:18;2.23;;;2.03;;
11865;SDS011;5992;52.744;6.898;2023-02-28T03:45:28;7.63;;;3.40;;
11865;SDS011;5992;52.744;6.898;2023-02-28T03:48:53;2.57;;;2.37;;
11865;SDS011;5992;52.744;6.898;2023-02-28T03:52:06;2.73;;;1.83;;
11865;SDS011;5992;52.744;6.898;2023-02-28T03:55:32;2.75;;;2.40;;
11865;SDS011;5992;52.744;6.898;2023-02-28T03:58:46;3.30;;;2.23;;
11865;SDS011;5992;52.744;6.898;2023-02-28T04:02:10;2.83;;;2.30;;
11865;SDS011;5992;52.744;6.898;2023-02-28T04:05:23;4.95;;;3.20;;
11865;SDS011;5992;52.744;6.898;2023-02-28T04:08:23;3.15;;;2.70;;
11865;SDS011;5992;52.744;6.898;2023-02-28T04:11:36;3.03;;;2.00;;
11865;SDS011;5992;52.744;6.898;2023-02-28T04:14:49;5.27;;;2.57;;
11865;SDS011;5992;52.744;6.898;2023-02-28T04:18:14;4.83;;;2.17;;
11865;SDS011;5992;52.744;6.898;2023-02-28T04:21:14;4.97;;;2.77;;
11865;SDS011;5992;52.744;6.898;2023-02-28T04:24:27;2.50;;;2.00;;
11865;SDS011;5992;52.744;6.898;2023-02-28T04:27:39;3.65;;;2.40;;
11865;SDS011;5992;52.744;6.898;2023-02-28T04:30:55;2.60;;;2.35;;
11865;SDS011;5992;52.744;6.898;2023-02-28T04:34:19;5.95;;;2.60;;
11865;SDS011;5992;52.744;6.898;2023-02-28T04:37:46;3.37;;;2.40;;
11865;SDS011;5992;52.744;6.898;2023-02-28T04:40:46;2.77;;;2.50;;
11865;SDS011;5992;52.744;6.898;2023-02-28T04:44:04;2.40;;;2.20;;
11865;SDS011;5992;52.744;6.898;2023-02-28T04:47:09;2.90;;;2.60;;
11865;SDS011;5992;52.744;6.898;2023-02-28T04:50:34;2.57;;;2.33;;
11865;SDS011;5992;52.744;6.898;2023-02-28T04:53:35;3.35;;;2.60;;
11865;SDS011;5992;52.744;6.898;2023-02-28T04:56:58;3.80;;;2.75;;
11865;SDS011;5992;52.744;6.898;2023-02-28T04:59:58;2.85;;;2.25;;
11865;SDS011;5992;52.744;6.898;2023-02-28T05:03:12;2.25;;;2.05;;
11865;SDS011;5992;52.744;6.898;2023-02-28T05:06:25;2.77;;;2.33;;
11865;SDS011;5992;52.744;6.898;2023-02-28T05:09:48;2.70;;;2.50;;
11865;SDS011;5992;52.744;6.898;2023-02-28T05:12:48;2.40;;;2.20;;
11865;SDS011;5992;52.744;6.898;2023-02-28T05:16:00;2.90;;;2.70;;
11865;SDS011;5992;52.744;6.898;2023-02-28T05:19:02;2.43;;;2.23;;
11865;SDS011;5992;52.744;6.898;2023-02-28T05:22:26;2.40;;;2.20;;
11865;SDS011;5992;52.744;6.898;2023-02-28T05:25:26;2.90;;;2.25;;
11865;SDS011;5992;52.744;6.898;2023-02-28T05:28:38;2.50;;;2.30;;
11865;SDS011;5992;52.744;6.898;2023-02-28T05:31:38;2.30;;;2.10;;
11865;SDS011;5992;52.744;6.898;2023-02-28T05:34:52;4.63;;;2.50;;
11865;SDS011;5992;52.744;6.898;2023-02-28T05:38:05;3.40;;;2.40;;
11865;SDS011;5992;52.744;6.898;2023-02-28T05:41:17;2.75;;;2.55;;
11865;SDS011;5992;52.744;6.898;2023-02-28T05:44:29;2.63;;;2.10;;
11865;SDS011;5992;52.744;6.898;2023-02-28T05:47:41;2.47;;;2.27;;
11865;SDS011;5992;52.744;6.898;2023-02-28T05:50:42;2.20;;;2.00;;
11865;SDS011;5992;52.744;6.898;2023-02-28T05:54:08;4.47;;;2.37;;
11865;SDS011;5992;52.744;6.898;2023-02-28T05:57:20;2.80;;;2.37;;
11865;SDS011;5992;52.744;6.898;2023-02-28T06:00:32;2.63;;;2.27;;
11865;SDS011;5992;52.744;6.898;2023-02-28T06:03:45;3.85;;;2.35;;
11865;SDS011;5992;52.744;6.898;2023-02-28T06:06:46;2.55;;;2.35;;
11865;SDS011;5992;52.744;6.898;2023-02-28T06:10:11;2.85;;;1.75;;
11865;SDS011;5992;52.744;6.898;2023-02-28T06:13:23;2.43;;;2.23;;
11865;SDS011;5992;52.744;6.898;2023-02-28T06:16:35;4.23;;;2.67;;
11865;SDS011;5992;52.744;6.898;2023-02-28T06:19:47;2.37;;;2.17;;
11865;SDS011;5992;52.744;6.898;2023-02-28T06:23:04;2.20;;;2.00;;
11865;SDS011;5992;52.744;6.898;2023-02-28T06:26:17;2.63;;;2.30;;
11865;SDS011;5992;52.744;6.898;2023-02-28T06:29:29;2.65;;;2.40;;
11865;SDS011;5992;52.744;6.898;2023-02-28T06:32:29;2.30;;;2.10;;
11865;SDS011;5992;52.744;6.898;2023-02-28T06:35:43;2.85;;;2.60;;
11865;SDS011;5992;52.744;6.898;2023-02-28T06:38:56;2.90;;;2.40;;
11865;SDS011;5992;52.744;6.898;2023-02-28T06:42:24;2.80;;;2.60;;
11865;SDS011;5992;52.744;6.898;2023-02-28T06:45:36;2.53;;;2.20;;
11865;SDS011;5992;52.744;6.898;2023-02-28T06:49:00;3.25;;;2.35;;
11865;SDS011;5992;52.744;6.898;2023-02-28T06:52:00;2.27;;;2.07;;
11865;SDS011;5992;52.744;6.898;2023-02-28T06:55:28;3.23;;;2.13;;
11865;SDS011;5992;52.744;6.898;2023-02-28T06:58:41;2.35;;;2.20;;
11865;SDS011;5992;52.744;6.898;2023-02-28T07:02:09;2.23;;;2.03;;
11865;SDS011;5992;52.744;6.898;2023-02-28T07:05:09;2.70;;;2.30;;
11865;SDS011;5992;52.744;6.898;2023-02-28T07:08:21;2.20;;;2.00;;
11865;SDS011;5992;52.744;6.898;2023-02-28T07:11:34;2.57;;;1.97;;
11865;SDS011;5992;52.744;6.898;2023-02-28T07:14:59;2.57;;;2.37;;
11865;SDS011;5992;52.744;6.898;2023-02-28T07:17:59;3.20;;;2.20;;
11865;SDS011;5992;52.744;6.898;2023-02-28T07:21:11;2.57;;;2.37;;
11865;SDS011;5992;52.744;6.898;2023-02-28T07:24:11;2.50;;;2.20;;
11865;SDS011;5992;52.744;6.898;2023-02-28T07:27:24;2.50;;;2.30;;
11865;SDS011;5992;52.744;6.898;2023-02-28T07:30:37;2.90;;;2.70;;
11865;SDS011;5992;52.744;6.898;2023-02-28T07:34:01;2.53;;;2.33;;
11865;SDS011;5992;52.744;6.898;2023-02-28T07:37:02;4.70;;;2.33;;
11865;SDS011;5992;52.744;6.898;2023-02-28T07:40:15;2.50;;;2.30;;
11865;SDS011;5992;52.744;6.898;2023-02-28T07:43:28;4.03;;;2.30;;
11865;SDS011;5992;52.744;6.898;2023-02-28T07:46:53;2.90;;;2.70;;
11865;SDS011;5992;52.744;6.898;2023-02-28T07:49:53;2.23;;;2.13;;
11865;SDS011;5992;52.744;6.898;2023-02-28T07:53:05;2.30;;;2.10;;
11865;SDS011;5992;52.744;6.898;2023-02-28T07:56:05;4.65;;;2.30;;
11865;SDS011;5992;52.744;6.898;2023-02-28T07:59:19;2.20;;;2.00;;
11865;SDS011;5992;52.744;6.898;2023-02-28T08:02:44;2.60;;;2.33;;
11865;SDS011;5992;52.744;6.898;2023-02-28T08:05:59;2.60;;;2.40;;
11865;SDS011;5992;52.744;6.898;2023-02-28T08:09:02;4.53;;;2.60;;
11865;SDS011;5992;52.744;6.898;2023-02-28T08:12:14;2.60;;;2.40;;
11865;SDS011;5992;52.744;6.898;2023-02-28T08:15:15;5.15;;;2.60;;
11865;SDS011;5992;52.744;6.898;2023-02-28T08:18:40;3.13;;;2.13;;
11865;SDS011;5992;52.744;6.898;2023-02-28T08:21:40;3.23;;;2.67;;
11865;SDS011;5992;52.744;6.898;2023-02-28T08:24:52;2.90;;;2.65;;
11865;SDS011;5992;52.744;6.898;2023-02-28T08:27:52;3.83;;;3.53;;
11865;SDS011;5992;52.744;6.898;2023-02-28T08:31:20;3.63;;;2.70;;
11865;SDS011;5992;52.744;6.898;2023-02-28T08:34:35;2.70;;;2.50;;
11865;SDS011;5992;52.744;6.898;2023-02-28T08:37:47;3.25;;;2.90;;
11865;SDS011;5992;52.744;6.898;2023-02-28T08:40:59;4.10;;;2.87;;
11865;SDS011;5992;52.744;6.898;2023-02-28T08:44:23;3.10;;;2.80;;
11865;SDS011;5992;52.744;6.898;2023-02-28T08:47:28;3.30;;;2.90;;
11865;SDS011;5992;52.744;6.898;2023-02-28T08:50:55;3.20;;;2.90;;
11865;SDS011;5992;52.744;6.898;2023-02-28T08:54:10;3.35;;;3.05;;
11865;SDS011;5992;52.744;6.898;2023-02-28T08:57:34;3.00;;;2.80;;
11865;SDS011;5992;52.744;6.898;2023-02-28T09:00:46;4.47;;;2.63;;
11865;SDS011;5992;52.744;6.898;2023-02-28T09:04:03;2.77;;;2.57;;
11865;SDS011;5992;52.744;6.898;2023-02-28T09:07:15;2.80;;;2.60;;
11865;SDS011;5992;52.744;6.898;2023-02-28T09:10:28;3.20;;;2.90;;
11865;SDS011;5992;52.744;6.898;2023-02-28T09:13:28;3.10;;;2.80;;
11865;SDS011;5992;52.744;6.898;2023-02-28T09:16:55;3.30;;;3.00;;
11865;SDS011;5992;52.744;6.898;2023-02-28T09:19:57;4.35;;;3.20;;
11865;SDS011;5992;52.744;6.898;2023-02-28T09:23:25;5.53;;;3.57;;
11865;SDS011;5992;52.744;6.898;2023-02-28T09:26:26;3.40;;;3.10;;
11865;SDS011;5992;52.744;6.898;2023-02-28T09:29:52;3.23;;;2.70;;
11865;SDS011;5992;52.744;6.898;2023-02-28T09:33:04;3.30;;;3.00;;
11865;SDS011;5992;52.744;6.898;2023-02-28T09:36:22;2.70;;;2.50;;
11865;SDS011;5992;52.744;6.898;2023-02-28T09:39:37;2.60;;;2.40;;
11865;SDS011;5992;52.744;6.898;2023-02-28T09:42:50;2.43;;;2.23;;
11865;SDS011;5992;52.744;6.898;2023-02-28T09:46:02;2.77;;;2.40;;
11865;SDS011;5992;52.744;6.898;2023-02-28T09:49:30;2.60;;;2.40;;
11865;SDS011;5992;52.744;6.898;2023-02-28T09:52:42;2.23;;;1.97;;
11865;SDS011;5992;52.744;6.898;2023-02-28T09:56:08;1.90;;;1.80;;
11865;SDS011;5992;52.744;6.898;2023-02-28T09:59:23;3.20;;;2.00;;
11865;SDS011;5992;52.744;6.898;2023-02-28T10:02:53;1.80;;;1.70;;
11865;SDS011;5992;52.744;6.898;2023-02-28T10:06:17;2.53;;;2.00;;
11865;SDS011;5992;52.744;6.898;2023-02-28T10:09:30;3.10;;;2.10;;
11865;SDS011;5992;52.744;6.898;2023-02-28T10:12:55;2.40;;;1.93;;
11865;SDS011;5992;52.744;6.898;2023-02-28T10:16:07;1.90;;;1.80;;
11865;SDS011;5992;52.744;6.898;2023-02-28T10:19:32;1.70;;;1.60;;
11865;SDS011;5992;52.744;6.898;2023-02-28T10:22:44;1.60;;;1.50;;
11865;SDS011;5992;52.744;6.898;2023-02-28T10:26:10;1.60;;;1.50;;
11865;SDS011;5992;52.744;6.898;2023-02-28T10:29:21;1.90;;;1.70;;
11865;SDS011;5992;52.744;6.898;2023-02-28T10:32:34;2.85;;;1.80;;
11865;SDS011;5992;52.744;6.898;2023-02-28T10:35:45;1.77;;;1.67;;
11865;SDS011;5992;52.744;6.898;2023-02-28T10:42:35;1.60;;;1.50;;
11865;SDS011;5992;52.744;6.898;2023-02-28T10:46:01;1.60;;;1.50;;
11865;SDS011;5992;52.744;6.898;2023-02-28T10:49:13;2.67;;;1.53;;
11865;SDS011;5992;52.744;6.898;2023-02-28T10:52:39;1.40;;;1.30;;
11865;SDS011;5992;52.744;6.898;2023-02-28T10:55:55;2.97;;;1.80;;
11865;SDS011;5992;52.744;6.898;2023-02-28T10:59:27;1.85;;;1.60;;
11865;SDS011;5992;52.744;6.898;2023-02-28T11:02:43;1.20;;;1.10;;
11865;SDS011;5992;52.744;6.898;2023-02-28T11:05:55;1.45;;;1.35;;
11865;SDS011;5992;52.744;6.898;2023-02-28T11:09:14;1.40;;;1.30;;
11865;SDS011;5992;52.744;6.898;2023-02-28T11:12:37;1.33;;;1.27;;
11865;SDS011;5992;52.744;6.898;2023-02-28T11:15:51;1.25;;;1.25;;
11865;SDS011;5992;52.744;6.898;2023-02-28T11:19:17;1.30;;;1.20;;
11865;SDS011;5992;52.744;6.898;2023-02-28T11:22:29;1.10;;;1.00;;
11865;SDS011;5992;52.744;6.898;2023-02-28T11:25:54;1.70;;;1.33;;
11865;SDS011;5992;52.744;6.898;2023-02-28T11:29:18;1.37;;;1.20;;
11865;SDS011;5992;52.744;6.898;2023-02-28T11:32:43;1.35;;;1.25;;
11865;SDS011;5992;52.744;6.898;2023-02-28T11:35:57;1.30;;;1.15;;
11865;SDS011;5992;52.744;6.898;2023-02-28T11:39:21;2.15;;;1.50;;
11865;SDS011;5992;52.744;6.898;2023-02-28T11:42:28;5.97;;;1.60;;
11865;SDS011;5992;52.744;6.898;2023-02-28T11:45:58;1.67;;;1.30;;
11865;SDS011;5992;52.744;6.898;2023-02-28T11:49:22;1.83;;;1.73;;
11865;SDS011;5992;52.744;6.898;2023-02-28T11:52:45;1.95;;;1.50;;
11865;SDS011;5992;52.744;6.898;2023-02-28T11:55:58;1.50;;;1.40;;
11865;SDS011;5992;52.744;6.898;2023-02-28T12:02:51;1.70;;;1.20;;
11865;SDS011;5992;52.744;6.898;2023-02-28T12:06:20;1.40;;;1.30;;
11865;SDS011;5992;52.744;6.898;2023-02-28T12:09:39;1.90;;;1.50;;
11865;SDS011;5992;52.744;6.898;2023-02-28T12:13:06;2.30;;;1.65;;
11865;SDS011;5992;52.744;6.898;2023-02-28T12:16:22;2.00;;;1.40;;
11865;SDS011;5992;52.744;6.898;2023-02-28T12:19:48;1.70;;;1.60;;
11865;SDS011;5992;52.744;6.898;2023-02-28T12:23:04;2.00;;;1.20;;
11865;SDS011;5992;52.744;6.898;2023-02-28T12:26:29;3.00;;;1.83;;
11865;SDS011;5992;52.744;6.898;2023-02-28T12:29:43;1.63;;;1.40;;
11865;SDS011;5992;52.744;6.898;2023-02-28T12:33:07;2.25;;;1.50;;
11865;SDS011;5992;52.744;6.898;2023-02-28T12:36:19;1.50;;;1.40;;
11865;SDS011;5992;52.744;6.898;2023-02-28T12:39:45;1.65;;;1.55;;
11865;SDS011;5992;52.744;6.898;2023-02-28T12:43:09;1.60;;;1.40;;
11865;SDS011;5992;52.744;6.898;2023-02-28T12:46:36;1.27;;;1.27;;
11865;SDS011;5992;52.744;6.898;2023-02-28T12:49:49;3.75;;;1.70;;
11865;SDS011;5992;52.744;6.898;2023-02-28T12:53:15;3.23;;;2.00;;
11865;SDS011;5992;52.744;6.898;2023-02-28T12:56:30;2.53;;;1.43;;
11865;SDS011;5992;52.744;6.898;2023-02-28T12:59:53;5.45;;;1.90;;
11865;SDS011;5992;52.744;6.898;2023-02-28T13:03:21;1.70;;;1.53;;
11865;SDS011;5992;52.744;6.898;2023-02-28T13:07:06;2.80;;;1.80;;
11865;SDS011;5992;52.744;6.898;2023-02-28T13:10:17;2.50;;;1.90;;
11865;SDS011;5992;52.744;6.898;2023-02-28T13:13:43;1.43;;;1.37;;
11865;SDS011;5992;52.744;6.898;2023-02-28T13:16:59;3.90;;;1.70;;
11865;SDS011;5992;52.744;6.898;2023-02-28T13:20:24;1.30;;;1.20;;
11865;SDS011;5992;52.744;6.898;2023-02-28T13:23:40;2.55;;;1.60;;
11865;SDS011;5992;52.744;6.898;2023-02-28T13:34:12;1.60;;;1.50;;
11865;SDS011;5992;52.744;6.898;2023-02-28T13:37:33;2.23;;;1.60;;
11865;SDS011;5992;52.744;6.898;2023-02-28T13:44:13;2.03;;;1.40;;
11865;SDS011;5992;52.744;6.898;2023-02-28T13:47:38;2.63;;;1.10;;
11865;SDS011;5992;52.744;6.898;2023-02-28T13:50:51;1.40;;;1.30;;
11865;SDS011;5992;52.744;6.898;2023-02-28T13:54:29;1.50;;;1.40;;
11865;SDS011;5992;52.744;6.898;2023-02-28T13:57:42;1.60;;;1.30;;
11865;SDS011;5992;52.744;6.898;2023-02-28T14:01:10;1.30;;;1.20;;
11865;SDS011;5992;52.744;6.898;2023-02-28T14:04:40;1.10;;;1.10;;
11865;SDS011;5992;52.744;6.898;2023-02-28T14:07:53;1.27;;;1.20;;
11865;SDS011;5992;52.744;6.898;2023-02-28T14:11:28;1.63;;;1.37;;
11865;SDS011;5992;52.744;6.898;2023-02-28T14:14:54;1.27;;;1.20;;
11865;SDS011;5992;52.744;6.898;2023-02-28T14:18:21;1.30;;;1.10;;
11865;SDS011;5992;52.744;6.898;2023-02-28T14:21:33;4.03;;;1.43;;
11865;SDS011;5992;52.744;6.898;2023-02-28T14:25:04;1.40;;;1.30;;
11865;SDS011;5992;52.744;6.898;2023-02-28T14:28:14;2.23;;;1.50;;
11865;SDS011;5992;52.744;6.898;2023-02-28T14:31:41;1.47;;;1.37;;
11865;SDS011;5992;52.744;6.898;2023-02-28T14:34:57;2.07;;;1.37;;
11865;SDS011;5992;52.744;6.898;2023-02-28T14:38:23;3.07;;;1.47;;
11865;SDS011;5992;52.744;6.898;2023-02-28T14:41:36;1.37;;;1.27;;
11865;SDS011;5992;52.744;6.898;2023-02-28T14:44:59;3.35;;;1.60;;
11865;SDS011;5992;52.744;6.898;2023-02-28T14:47:59;1.30;;;1.20;;
11865;SDS011;5992;52.744;6.898;2023-02-28T14:51:23;1.73;;;1.50;;
11865;SDS011;5992;52.744;6.898;2023-02-28T14:54:35;1.73;;;1.40;;
11865;SDS011;5992;52.744;6.898;2023-02-28T14:58:02;1.63;;;1.40;;
11865;SDS011;5992;52.744;6.898;2023-02-28T15:01:12;1.70;;;1.60;;
11865;SDS011;5992;52.744;6.898;2023-02-28T15:04:36;2.20;;;1.60;;
11865;SDS011;5992;52.744;6.898;2023-02-28T15:07:36;1.60;;;1.50;;
11865;SDS011;5992;52.744;6.898;2023-02-28T15:10:51;1.70;;;1.60;;
11865;SDS011;5992;52.744;6.898;2023-02-28T15:14:05;1.63;;;1.53;;
11865;SDS011;5992;52.744;6.898;2023-02-28T15:17:31;2.10;;;1.80;;
11865;SDS011;5992;52.744;6.898;2023-02-28T15:20:43;1.30;;;1.20;;
11865;SDS011;5992;52.744;6.898;2023-02-28T15:24:10;1.75;;;1.60;;
11865;SDS011;5992;52.744;6.898;2023-02-28T15:27:21;1.30;;;1.23;;
11865;SDS011;5992;52.744;6.898;2023-02-28T15:30:53;1.70;;;1.50;;
11865;SDS011;5992;52.744;6.898;2023-02-28T15:34:12;1.37;;;1.27;;
11865;SDS011;5992;52.744;6.898;2023-02-28T15:37:38;2.37;;;1.30;;
11865;SDS011;5992;52.744;6.898;2023-02-28T15:40:51;1.55;;;1.45;;
11865;SDS011;5992;52.744;6.898;2023-02-28T15:44:23;1.30;;;1.20;;
11865;SDS011;5992;52.744;6.898;2023-02-28T15:47:34;1.25;;;1.10;;
11865;SDS011;5992;52.744;6.898;2023-02-28T15:51:01;1.53;;;1.43;;
11865;SDS011;5992;52.744;6.898;2023-02-28T15:54:14;1.70;;;1.60;;
11865;SDS011;5992;52.744;6.898;2023-02-28T15:57:38;1.70;;;1.20;;
11865;SDS011;5992;52.744;6.898;2023-02-28T16:04:31;1.67;;;1.50;;
11865;SDS011;5992;52.744;6.898;2023-02-28T16:07:44;1.70;;;1.60;;
11865;SDS011;5992;52.744;6.898;2023-02-28T16:11:08;2.33;;;1.73;;
11865;SDS011;5992;52.744;6.898;2023-02-28T16:14:20;1.90;;;1.80;;
11865;SDS011;5992;52.744;6.898;2023-02-28T16:17:45;3.60;;;1.80;;
11865;SDS011;5992;52.744;6.898;2023-02-28T16:20:46;2.65;;;1.80;;
11865;SDS011;5992;52.744;6.898;2023-02-28T16:24:11;1.40;;;1.30;;
11865;SDS011;5992;52.744;6.898;2023-02-28T16:27:25;2.23;;;1.53;;
11865;SDS011;5992;52.744;6.898;2023-02-28T16:30:47;4.73;;;1.80;;
11865;SDS011;5992;52.744;6.898;2023-02-28T16:33:47;2.53;;;1.43;;
11865;SDS011;5992;52.744;6.898;2023-02-28T16:37:15;2.00;;;1.70;;
11865;SDS011;5992;52.744;6.898;2023-02-28T16:40:27;1.70;;;1.60;;
11865;SDS011;5992;52.744;6.898;2023-02-28T16:43:51;1.90;;;1.80;;
11865;SDS011;5992;52.744;6.898;2023-02-28T16:47:03;1.83;;;1.70;;
11865;SDS011;5992;52.744;6.898;2023-02-28T16:50:27;1.97;;;1.70;;
11865;SDS011;5992;52.744;6.898;2023-02-28T16:53:40;1.77;;;1.67;;
11865;SDS011;5992;52.744;6.898;2023-02-28T16:57:05;1.70;;;1.60;;
11865;SDS011;5992;52.744;6.898;2023-02-28T17:00:17;2.95;;;1.70;;
11865;SDS011;5992;52.744;6.898;2023-02-28T17:03:31;2.55;;;1.90;;
11865;SDS011;5992;52.744;6.898;2023-02-28T17:06:31;3.35;;;1.80;;
11865;SDS011;5992;52.744;6.898;2023-02-28T17:09:47;1.83;;;1.70;;
11865;SDS011;5992;52.744;6.898;2023-02-28T17:13:00;3.10;;;2.27;;
11865;SDS011;5992;52.744;6.898;2023-02-28T17:16:17;2.45;;;1.70;;
11865;SDS011;5992;52.744;6.898;2023-02-28T17:19:29;4.70;;;1.90;;
11865;SDS011;5992;52.744;6.898;2023-02-28T17:22:44;3.93;;;1.90;;
11865;SDS011;5992;52.744;6.898;2023-02-28T17:25:45;1.77;;;1.67;;
11865;SDS011;5992;52.744;6.898;2023-02-28T17:29:13;3.55;;;2.30;;
11865;SDS011;5992;52.744;6.898;2023-02-28T17:32:24;2.20;;;1.97;;
11865;SDS011;5992;52.744;6.898;2023-02-28T17:35:36;1.47;;;1.37;;
11865;SDS011;5992;52.744;6.898;2023-02-28T17:38:36;2.20;;;1.80;;
11865;SDS011;5992;52.744;6.898;2023-02-28T17:41:49;2.50;;;2.03;;
11865;SDS011;5992;52.744;6.898;2023-02-28T17:45:02;6.05;;;2.20;;
11865;SDS011;5992;52.744;6.898;2023-02-28T17:48:15;3.10;;;2.30;;
11865;SDS011;5992;52.744;6.898;2023-02-28T17:51:15;3.53;;;2.27;;
11865;SDS011;5992;52.744;6.898;2023-02-28T17:54:39;5.87;;;2.00;;
11865;SDS011;5992;52.744;6.898;2023-02-28T17:57:40;2.40;;;2.20;;
11865;SDS011;5992;52.744;6.898;2023-02-28T18:01:06;1.70;;;1.60;;
11865;SDS011;5992;52.744;6.898;2023-02-28T18:04:30;3.75;;;2.30;;
11865;SDS011;5992;52.744;6.898;2023-02-28T18:07:30;2.40;;;2.20;;
11865;SDS011;5992;52.744;6.898;2023-02-28T18:10:42;2.40;;;1.97;;
11865;SDS011;5992;52.744;6.898;2023-02-28T18:13:44;2.50;;;1.93;;
11865;SDS011;5992;52.744;6.898;2023-02-28T18:17:08;3.43;;;2.13;;
11865;SDS011;5992;52.744;6.898;2023-02-28T18:20:33;2.00;;;1.90;;
11865;SDS011;5992;52.744;6.898;2023-02-28T18:23:57;4.00;;;1.70;;
11865;SDS011;5992;52.744;6.898;2023-02-28T18:27:09;2.20;;;1.90;;
11865;SDS011;5992;52.744;6.898;2023-02-28T18:30:27;1.80;;;1.70;;
11865;SDS011;5992;52.744;6.898;2023-02-28T18:33:39;1.73;;;1.60;;
11865;SDS011;5992;52.744;6.898;2023-02-28T18:36:51;1.67;;;1.57;;
11865;SDS011;5992;52.744;6.898;2023-02-28T18:40:03;2.40;;;2.00;;
11865;SDS011;5992;52.744;6.898;2023-02-28T18:43:16;1.80;;;1.70;;
11865;SDS011;5992;52.744;6.898;2023-02-28T18:46:18;1.97;;;1.80;;
11865;SDS011;5992;52.744;6.898;2023-02-28T18:49:41;1.90;;;1.80;;
11865;SDS011;5992;52.744;6.898;2023-02-28T18:52:41;1.63;;;1.53;;
11865;SDS011;5992;52.744;6.898;2023-02-28T18:55:58;2.87;;;2.00;;
11865;SDS011;5992;52.744;6.898;2023-02-28T18:59:10;2.10;;;1.90;;
11865;SDS011;5992;52.744;6.898;2023-02-28T19:02:36;2.03;;;1.83;;
11865;SDS011;5992;52.744;6.898;2023-02-28T19:05:52;1.70;;;1.60;;
11865;SDS011;5992;52.744;6.898;2023-02-28T19:09:16;1.80;;;1.70;;
11865;SDS011;5992;52.744;6.898;2023-02-28T19:12:16;1.83;;;1.70;;
11865;SDS011;5992;52.744;6.898;2023-02-28T19:15:28;2.03;;;1.70;;
11865;SDS011;5992;52.744;6.898;2023-02-28T19:18:29;2.23;;;1.93;;
11865;SDS011;5992;52.744;6.898;2023-02-28T19:21:55;1.80;;;1.70;;
11865;SDS011;5992;52.744;6.898;2023-02-28T19:24:58;1.80;;;1.70;;
11865;SDS011;5992;52.744;6.898;2023-02-28T19:28:13;3.40;;;2.40;;
11865;SDS011;5992;52.744;6.898;2023-02-28T19:31:14;2.13;;;1.87;;
11865;SDS011;5992;52.744;6.898;2023-02-28T19:34:39;1.70;;;1.60;;
11865;SDS011;5992;52.744;6.898;2023-02-28T19:37:51;2.10;;;1.90;;
11865;SDS011;5992;52.744;6.898;2023-02-28T19:41:04;1.80;;;1.70;;
11865;SDS011;5992;52.744;6.898;2023-02-28T19:44:15;1.95;;;1.75;;
11865;SDS011;5992;52.744;6.898;2023-02-28T19:47:28;2.00;;;1.90;;
11865;SDS011;5992;52.744;6.898;2023-02-28T19:50:30;2.00;;;1.80;;
11865;SDS011;5992;52.744;6.898;2023-02-28T19:53:57;2.53;;;1.93;;
11865;SDS011;5992;52.744;6.898;2023-02-28T19:56:57;2.10;;;2.00;;
11865;SDS011;5992;52.744;6.898;2023-02-28T20:00:10;2.07;;;1.97;;
11865;SDS011;5992;52.744;6.898;2023-02-28T20:03:34;2.45;;;2.15;;
11865;SDS011;5992;52.744;6.898;2023-02-28T20:06:36;1.95;;;1.80;;
11865;SDS011;5992;52.744;6.898;2023-02-28T20:10:03;2.05;;;1.95;;
11865;SDS011;5992;52.744;6.898;2023-02-28T20:13:17;2.60;;;2.40;;
11865;SDS011;5992;52.744;6.898;2023-02-28T20:16:30;3.90;;;2.10;;
11865;SDS011;5992;52.744;6.898;2023-02-28T20:19:42;2.70;;;2.50;;
11865;SDS011;5992;52.744;6.898;2023-02-28T20:23:11;2.70;;;2.50;;
11865;SDS011;5992;52.744;6.898;2023-02-28T20:26:23;2.57;;;2.37;;